Time;durP1;ratioP1;P1;durP2;ratioP2;P2;SDS_P1;SDS_P2;PMS_P1;PMS_P2;Temp;Humidity;BMP_temperature;BMP_pressure;BME280_temperature;BME280_humidity;BME280_pressure;Samples;Min_cycle;Max_cycle;Signal;HPM_P1;HPM_P2
2024/02/14 00:00:45;;;;;;;4.65;2.00;;;9.30;99.90;;;;;;5021397;28;20028;-90
2024/02/14 00:03:11;;;;;;;2.53;1.92;;;9.20;99.90;;;;;;5042111;28;20048;-90
2024/02/14 00:05:40;;;;;;;2.55;2.00;;;9.20;99.90;;;;;;5055885;28;20032;-90
2024/02/14 00:08:07;;;;;;;3.30;2.17;;;9.20;99.90;;;;;;5055705;28;20042;-90
2024/02/14 00:10:33;;;;;;;3.90;1.98;;;9.20;99.90;;;;;;5023470;28;20095;-91
2024/02/14 00:12:58;;;;;;;3.65;1.80;;;9.20;99.90;;;;;;5057473;28;20468;-90
2024/02/14 00:15:25;;;;;;;2.60;2.00;;;9.20;99.90;;;;;;5030476;28;20033;-90
2024/02/14 00:17:51;;;;;;;2.85;2.10;;;9.20;99.90;;;;;;5038466;28;20033;-89
2024/02/14 00:20:24;;;;;;;2.70;2.05;;;9.20;99.90;;;;;;5037950;28;20078;-91
2024/02/14 00:22:50;;;;;;;3.10;2.10;;;9.20;99.90;;;;;;5075576;28;20103;-90
2024/02/14 00:25:15;;;;;;;2.28;1.90;;;9.20;99.90;;;;;;5075253;28;20151;-89
2024/02/14 00:27:42;;;;;;;1.98;1.65;;;9.20;99.90;;;;;;5057996;28;20028;-91
2024/02/14 00:30:08;;;;;;;2.47;1.63;;;9.20;99.90;;;;;;5075125;28;20539;-90
2024/02/14 00:32:34;;;;;;;4.43;2.13;;;9.20;99.90;;;;;;5057034;28;20150;-91
2024/02/14 00:34:59;;;;;;;2.33;1.92;;;9.20;99.90;;;;;;5036990;28;20383;-91
2024/02/14 00:37:25;;;;;;;3.67;2.00;;;9.30;99.90;;;;;;5039589;28;20020;-89
2024/02/14 00:39:51;;;;;;;4.05;2.25;;;9.30;99.90;;;;;;5057025;28;20013;-87
2024/02/14 00:42:17;;;;;;;3.35;2.28;;;9.30;99.90;;;;;;5068555;28;20042;-91
2024/02/14 00:44:43;;;;;;;2.50;2.00;;;9.30;99.90;;;;;;5115298;28;20040;-90
2024/02/14 00:47:12;;;;;;;2.72;2.20;;;9.30;99.90;;;;;;5095507;28;20032;-90
2024/02/14 00:49:39;;;;;;;3.50;2.25;;;9.30;99.90;;;;;;5060890;28;20021;-92
2024/02/14 00:52:04;;;;;;;5.47;2.70;;;9.30;99.90;;;;;;5045038;28;20041;-90
2024/02/14 00:54:36;;;;;;;4.70;2.47;;;9.40;99.90;;;;;;5060880;28;20060;-91
2024/02/14 00:57:02;;;;;;;3.03;2.65;;;9.30;99.90;;;;;;5060794;28;20034;-90
2024/02/14 00:59:28;;;;;;;2.25;1.92;;;9.30;99.90;;;;;;5057161;28;20127;-91
2024/02/14 01:01:54;;;;;;;2.90;2.28;;;9.40;99.90;;;;;;5028841;28;20111;-90
2024/02/14 01:04:20;;;;;;;3.50;2.50;;;9.40;99.90;;;;;;5076058;28;20024;-90
2024/02/14 01:06:48;;;;;;;3.08;2.53;;;9.40;99.90;;;;;;5063059;28;20041;-88
2024/02/14 01:09:13;;;;;;;4.68;2.92;;;9.40;99.90;;;;;;5048857;28;20035;-90
2024/02/14 01:11:39;;;;;;;2.45;2.13;;;9.40;99.90;;;;;;5042033;28;20029;-90
2024/02/14 01:14:05;;;;;;;5.70;2.80;;;9.40;99.90;;;;;;5057070;28;20117;-90
2024/02/14 01:16:33;;;;;;;3.08;2.58;;;9.40;99.90;;;;;;5058342;28;20029;-90
2024/02/14 01:18:58;;;;;;;3.47;2.63;;;9.40;99.90;;;;;;5036766;28;20087;-90
2024/02/14 01:21:24;;;;;;;3.42;2.60;;;9.40;99.90;;;;;;5045822;28;20033;-91
2024/02/14 01:23:52;;;;;;;3.92;2.53;;;9.40;99.90;;;;;;5057180;28;20540;-92
2024/02/14 01:26:17;;;;;;;4.80;2.65;;;9.50;99.90;;;;;;5057694;28;20040;-90
2024/02/14 01:28:44;;;;;;;4.18;2.83;;;9.50;99.90;;;;;;5040604;28;20029;-91
2024/02/14 01:31:11;;;;;;;3.20;2.58;;;9.50;99.90;;;;;;5056722;28;20017;-91
2024/02/14 01:33:37;;;;;;;4.75;2.70;;;9.50;99.90;;;;;;5024218;28;20068;-90
2024/02/14 01:36:04;;;;;;;4.53;3.00;;;9.50;99.90;;;;;;5036990;28;20030;-92
2024/02/14 01:38:33;;;;;;;3.50;2.80;;;9.60;99.90;;;;;;5044362;28;20075;-90
2024/02/14 01:40:59;;;;;;;3.33;2.92;;;9.50;99.90;;;;;;5037005;28;20025;-90
2024/02/14 01:43:26;;;;;;;3.50;2.88;;;9.60;99.90;;;;;;5052367;28;20024;-91
2024/02/14 01:45:53;;;;;;;4.43;3.65;;;9.60;99.90;;;;;;5058263;28;20029;-91
2024/02/14 01:48:19;;;;;;;4.47;3.22;;;9.60;99.90;;;;;;5056821;28;20093;-91
2024/02/14 01:50:45;;;;;;;4.68;3.30;;;9.60;99.90;;;;;;5055412;28;20105;-91
2024/02/14 01:53:12;;;;;;;4.20;2.83;;;9.60;99.90;;;;;;5043449;28;20108;-90
2024/02/14 01:55:38;;;;;;;4.70;3.50;;;9.60;99.90;;;;;;5058318;28;20411;-90
2024/02/14 01:58:04;;;;;;;5.53;3.08;;;9.60;99.90;;;;;;5072374;28;20045;-90
2024/02/14 02:00:35;;;;;;;6.65;4.15;;;9.70;99.90;;;;;;5065056;28;20052;-90
2024/02/14 02:03:01;;;;;;;4.15;3.10;;;9.70;99.90;;;;;;5052089;28;20487;-90
2024/02/14 02:05:26;;;;;;;4.57;2.97;;;9.70;99.90;;;;;;5056384;28;20029;-90
2024/02/14 02:07:54;;;;;;;4.55;2.95;;;9.80;99.90;;;;;;5056552;28;20059;-89
2024/02/14 02:10:22;;;;;;;7.57;3.47;;;9.80;99.90;;;;;;5059286;28;20029;-90
2024/02/14 02:12:48;;;;;;;4.28;3.10;;;9.70;99.90;;;;;;5071478;28;20036;-89
2024/02/14 02:15:16;;;;;;;4.28;3.15;;;9.80;99.90;;;;;;5077988;28;20017;-89
2024/02/14 02:17:42;;;;;;;4.07;3.35;;;9.80;99.90;;;;;;5064852;28;20092;-90
2024/02/14 02:20:11;;;;;;;5.43;3.30;;;9.80;99.90;;;;;;5054717;28;20060;-91
2024/02/14 02:22:37;;;;;;;5.10;3.88;;;9.80;99.90;;;;;;5039045;28;20040;-91
2024/02/14 02:25:07;;;;;;;4.65;3.30;;;9.80;99.90;;;;;;5045344;28;20029;-90
2024/02/14 02:27:35;;;;;;;4.63;3.30;;;9.90;99.90;;;;;;5047768;28;20032;-90
2024/02/14 02:30:05;;;;;;;4.35;3.28;;;9.80;99.90;;;;;;5037186;28;20070;-90
2024/02/14 02:32:30;;;;;;;5.93;3.20;;;9.90;99.90;;;;;;5043196;28;20017;-90
2024/02/14 02:34:59;;;;;;;6.45;3.83;;;9.90;99.90;;;;;;5056864;28;20470;-91
2024/02/14 02:37:25;;;;;;;7.13;3.90;;;9.90;99.90;;;;;;5049273;28;20036;-91
2024/02/14 02:39:51;;;;;;;6.05;3.90;;;9.90;99.90;;;;;;5065944;28;20013;-89
2024/02/14 02:42:18;;;;;;;7.63;3.42;;;9.90;99.90;;;;;;5065989;28;20055;-90
2024/02/14 02:44:47;;;;;;;4.72;3.42;;;9.90;99.90;;;;;;5069011;28;20037;-92
2024/02/14 02:47:12;;;;;;;5.13;3.45;;;10.00;99.90;;;;;;5065627;28;20381;-90
2024/02/14 02:49:38;;;;;;;6.82;4.15;;;10.00;99.90;;;;;;5056126;28;20028;-90
2024/02/14 02:52:04;;;;;;;8.00;3.50;;;10.00;99.90;;;;;;5040966;28;20032;-85
2024/02/14 02:54:30;;;;;;;5.32;3.72;;;10.00;99.90;;;;;;5066917;28;20036;-91
2024/02/14 02:56:55;;;;;;;6.03;3.65;;;10.00;99.90;;;;;;5075426;28;20103;-91
2024/02/14 02:59:24;;;;;;;3.67;3.30;;;10.00;99.90;;;;;;5061181;28;20055;-91
2024/02/14 03:01:50;;;;;;;5.47;3.88;;;10.00;99.90;;;;;;5050329;28;20052;-89
2024/02/14 03:04:16;;;;;;;5.15;3.95;;;10.00;99.90;;;;;;5049674;28;20029;-90
2024/02/14 03:06:43;;;;;;;5.50;4.20;;;10.00;99.90;;;;;;5078112;28;20021;-91
2024/02/14 03:09:09;;;;;;;6.95;3.53;;;10.00;99.90;;;;;;5059187;28;20020;-92
2024/02/14 03:11:38;;;;;;;5.95;3.60;;;10.00;99.90;;;;;;5038556;28;20021;-90
2024/02/14 03:14:04;;;;;;;5.25;3.85;;;10.00;99.90;;;;;;5043812;28;20048;-92
2024/02/14 03:16:30;;;;;;;4.65;3.70;;;10.00;99.90;;;;;;5042186;28;20043;-91
2024/02/14 03:18:55;;;;;;;4.80;3.88;;;10.00;99.90;;;;;;5055163;28;20021;-92
2024/02/14 03:21:22;;;;;;;4.50;3.50;;;10.00;99.90;;;;;;5054436;28;20021;-91
2024/02/14 03:23:48;;;;;;;5.03;4.07;;;10.00;99.90;;;;;;5055727;28;20025;-89
2024/02/14 03:26:14;;;;;;;6.85;4.00;;;10.00;99.90;;;;;;5054470;28;20075;-90
2024/02/14 03:28:39;;;;;;;3.92;3.50;;;10.00;99.90;;;;;;5063283;28;20024;-90
2024/02/14 03:31:05;;;;;;;4.65;3.70;;;10.00;99.90;;;;;;5067714;28;20096;-89
2024/02/14 03:33:31;;;;;;;7.13;4.00;;;10.00;99.90;;;;;;5071698;28;20021;-89
2024/02/14 03:35:59;;;;;;;5.65;4.03;;;10.10;99.90;;;;;;5056270;28;20469;-89
2024/02/14 03:38:29;;;;;;;5.63;4.00;;;10.10;99.90;;;;;;5061148;28;20029;-90
2024/02/14 03:40:55;;;;;;;4.97;4.47;;;10.10;99.90;;;;;;5055833;28;20044;-90
2024/02/14 03:43:23;;;;;;;4.47;4.03;;;10.10;99.90;;;;;;5047953;28;20017;-91
2024/02/14 03:45:49;;;;;;;7.72;4.28;;;10.10;99.90;;;;;;5060371;28;20115;-90
2024/02/14 03:48:15;;;;;;;5.65;4.28;;;10.10;99.90;;;;;;5043311;28;20049;-90
2024/02/14 03:50:42;;;;;;;6.07;4.80;;;10.10;99.90;;;;;;5049279;28;20029;-90
2024/02/14 03:53:10;;;;;;;5.43;4.50;;;10.20;99.90;;;;;;5042845;28;20120;-90
2024/02/14 03:55:37;;;;;;;6.55;4.80;;;10.20;99.90;;;;;;5056650;28;20036;-90
2024/02/14 03:58:05;;;;;;;7.32;5.03;;;10.20;99.90;;;;;;5030740;28;20125;-89
2024/02/14 04:00:31;;;;;;;5.40;4.70;;;10.20;99.90;;;;;;5063455;28;20021;-90
2024/02/14 04:02:59;;;;;;;7.85;5.43;;;10.20;99.90;;;;;;5044532;28;20037;-90
2024/02/14 04:05:29;;;;;;;5.88;4.80;;;10.30;99.90;;;;;;5042823;28;20063;-90
2024/02/14 04:07:55;;;;;;;7.50;4.80;;;10.30;99.90;;;;;;5046100;28;20032;-88
2024/02/14 04:10:22;;;;;;;7.32;5.22;;;10.30;99.90;;;;;;5041716;28;20079;-90
2024/02/14 04:12:48;;;;;;;10.55;5.72;;;10.30;99.90;;;;;;5056985;28;20029;-90
2024/02/14 04:15:14;;;;;;;7.60;4.68;;;10.30;99.90;;;;;;5067562;28;20017;-86
2024/02/14 04:17:40;;;;;;;6.60;4.95;;;10.30;99.90;;;;;;5067551;28;20031;-90
2024/02/14 04:20:06;;;;;;;8.30;5.25;;;10.30;99.90;;;;;;5067765;28;20115;-90
2024/02/14 04:22:32;;;;;;;7.38;5.15;;;10.30;99.90;;;;;;5062710;28;20476;-89
2024/02/14 04:24:58;;;;;;;8.77;5.18;;;10.30;99.90;;;;;;5071795;28;20074;-90
2024/02/14 04:27:23;;;;;;;6.28;5.03;;;10.30;99.90;;;;;;5088587;28;20028;-90
2024/02/14 04:29:49;;;;;;;7.03;5.57;;;10.30;99.90;;;;;;5088866;28;20025;-89
2024/02/14 04:32:19;;;;;;;6.15;4.90;;;10.30;99.90;;;;;;5069733;28;20028;-86
2024/02/14 04:34:45;;;;;;;8.35;5.60;;;10.30;99.90;;;;;;5059949;28;20017;-90
2024/02/14 04:37:13;;;;;;;10.80;6.80;;;10.40;99.90;;;;;;5057628;28;20059;-90
2024/02/14 04:39:40;;;;;;;7.72;6.00;;;10.30;99.90;;;;;;5047791;28;20034;-89
2024/02/14 04:42:05;;;;;;;10.38;6.78;;;10.30;99.90;;;;;;5065931;28;20025;-91
2024/02/14 04:44:32;;;;;;;6.80;5.68;;;10.40;99.90;;;;;;5050690;28;20040;-91
2024/02/14 04:46:58;;;;;;;8.65;6.13;;;10.30;99.90;;;;;;5065529;28;20119;-90
2024/02/14 04:49:24;;;;;;;9.13;6.18;;;10.30;99.90;;;;;;5068585;28;20029;-91
2024/02/14 04:51:51;;;;;;;8.65;6.10;;;10.40;99.90;;;;;;5043902;28;20025;-90
2024/02/14 04:54:20;;;;;;;8.98;6.38;;;10.40;99.90;;;;;;5080321;28;20078;-92
2024/02/14 04:56:45;;;;;;;8.38;6.25;;;10.40;99.90;;;;;;5072090;28;20029;-90
2024/02/14 04:59:12;;;;;;;7.80;6.55;;;10.40;99.90;;;;;;5075116;28;20074;-90
2024/02/14 05:01:39;;;;;;;9.63;6.88;;;10.40;99.90;;;;;;5061168;28;20016;-90
2024/02/14 05:04:06;;;;;;;8.02;6.40;;;10.40;99.90;;;;;;5060710;28;20075;-91
2024/02/14 05:06:32;;;;;;;10.15;7.25;;;10.40;99.90;;;;;;5061062;28;20090;-90
2024/02/14 05:08:58;;;;;;;7.00;6.30;;;10.50;99.90;;;;;;5047215;28;20017;-92
2024/02/14 05:11:27;;;;;;;8.85;6.47;;;10.50;99.90;;;;;;5092476;28;20054;-89
2024/02/14 05:13:53;;;;;;;10.77;6.35;;;10.50;99.90;;;;;;5077579;28;20023;-92
2024/02/14 05:16:26;;;;;;;9.93;6.97;;;10.50;99.90;;;;;;5067068;28;20048;-90
2024/02/14 05:18:52;;;;;;;9.10;6.30;;;10.50;99.90;;;;;;5040251;28;20527;-91
2024/02/14 05:21:23;;;;;;;9.65;6.65;;;10.50;99.90;;;;;;5051945;28;20021;-93
2024/02/14 05:23:49;;;;;;;12.02;7.25;;;10.50;99.90;;;;;;5060119;28;20020;-91
2024/02/14 05:26:15;;;;;;;7.93;6.45;;;10.50;99.90;;;;;;5059325;28;20027;-91
2024/02/14 05:28:42;;;;;;;8.90;6.40;;;10.50;99.90;;;;;;5077086;28;20029;-92
2024/02/14 05:31:07;;;;;;;6.63;5.60;;;10.50;99.90;;;;;;5059881;28;20057;-92
2024/02/14 05:33:33;;;;;;;8.02;6.35;;;10.60;99.90;;;;;;5077372;28;20032;-91
2024/02/14 05:35:59;;;;;;;7.50;6.07;;;10.60;99.90;;;;;;5069110;28;20035;-91
2024/02/14 05:38:25;;;;;;;7.72;5.43;;;10.60;99.90;;;;;;5066190;28;20033;-90
2024/02/14 05:40:50;;;;;;;8.60;6.38;;;10.60;99.90;;;;;;5040048;28;20115;-89
2024/02/14 05:43:19;;;;;;;7.78;5.95;;;10.70;99.90;;;;;;5047040;28;20055;-88
2024/02/14 05:45:48;;;;;;;8.32;5.80;;;10.70;99.90;;;;;;5054089;28;20103;-89
2024/02/14 05:48:14;;;;;;;8.73;6.20;;;10.70;99.90;;;;;;5051217;28;20534;-90
2024/02/14 05:50:42;;;;;;;8.10;6.43;;;10.70;99.90;;;;;;5053201;28;20025;-92
2024/02/14 05:53:08;;;;;;;7.95;5.35;;;10.70;99.90;;;;;;5055380;28;20082;-92
2024/02/14 05:55:37;;;;;;;6.88;5.82;;;10.70;99.90;;;;;;5043710;28;20032;-94
2024/02/14 05:58:03;;;;;;;6.75;5.47;;;10.70;99.90;;;;;;5089527;28;20174;-85
2024/02/14 06:00:29;;;;;;;7.43;6.05;;;10.70;99.90;;;;;;5038013;28;20035;-91
2024/02/14 06:03:00;;;;;;;6.65;5.30;;;10.70;99.90;;;;;;5066928;28;20024;-91
2024/02/14 06:05:28;;;;;;;;;;;10.70;99.90;;;;;;5040080;28;20029;-91
2024/02/14 06:08:04;;;;;;;;;;;;;;;;;;;;;
2024/02/14 06:13:05;;;;;;;8.10;5.40;;;10.70;99.90;;;;;;5431288;22;20064;-92
2024/02/14 06:15:31;;;;;;;8.45;5.70;;;10.80;99.90;;;;;;5059574;28;20047;-90
2024/02/14 06:18:10;;;;;;;;;;;;;;;;;;;;;
2024/02/14 06:20:39;;;;;;;8.18;5.57;;;10.80;99.90;;;;;;5080826;28;20030;-89
2024/02/14 06:23:07;;;;;;;6.15;5.55;;;10.80;99.90;;;;;;5096341;28;20032;-91
2024/02/14 06:25:35;;;;;;;6.45;5.60;;;10.80;99.90;;;;;;5096441;28;20024;-90
2024/02/14 06:28:01;;;;;;;8.38;5.88;;;10.80;99.90;;;;;;5074766;28;20029;-91
2024/02/14 06:30:30;;;;;;;6.00;5.22;;;10.80;99.90;;;;;;5062323;28;20016;-90
2024/02/14 06:33:00;;;;;;;5.90;5.30;;;10.80;99.90;;;;;;5067654;28;20047;-92
2024/02/14 06:35:26;;;;;;;6.10;5.05;;;10.80;99.90;;;;;;5070064;28;20041;-90
2024/02/14 06:37:54;;;;;;;6.18;5.28;;;10.80;99.90;;;;;;5061217;28;20032;-90
2024/02/14 06:40:21;;;;;;;6.47;5.50;;;10.80;99.90;;;;;;5086888;28;20063;-92
2024/02/14 06:42:55;;;;;;;6.40;5.15;;;10.90;99.90;;;;;;5100091;28;20005;-87
2024/02/14 06:45:21;;;;;;;6.68;5.25;;;10.80;99.90;;;;;;5115304;28;20034;-90
2024/02/14 06:47:47;;;;;;;4.90;4.40;;;10.80;99.90;;;;;;5064681;28;20036;-90
2024/02/14 06:50:12;;;;;;;5.93;4.93;;;10.80;99.90;;;;;;5087245;28;20024;-90
2024/02/14 06:52:38;;;;;;;7.07;5.07;;;10.90;99.90;;;;;;5077969;28;20067;-91
2024/02/14 06:55:07;;;;;;;6.75;4.72;;;10.90;99.90;;;;;;5066657;28;20024;-92
2024/02/14 06:57:32;;;;;;;5.60;4.70;;;10.90;99.90;;;;;;5068811;28;20417;-91
2024/02/14 06:59:58;;;;;;;5.70;4.85;;;10.90;99.90;;;;;;5078482;28;20043;-90
2024/02/14 07:02:28;;;;;;;5.30;4.55;;;10.90;99.90;;;;;;5055591;28;20021;-92
2024/02/14 07:04:54;;;;;;;5.32;4.63;;;10.90;99.90;;;;;;5074843;28;20036;-91
2024/02/14 07:07:20;;;;;;;7.25;5.03;;;10.90;99.90;;;;;;5057234;28;20016;-91
2024/02/14 07:09:46;;;;;;;6.68;5.53;;;11.00;99.90;;;;;;5068413;28;20459;-91
2024/02/14 07:12:14;;;;;;;6.35;5.00;;;11.00;99.90;;;;;;5095244;28;20047;-90
2024/02/14 07:14:43;;;;;;;6.22;4.75;;;11.00;99.90;;;;;;5093201;28;20040;-90
2024/02/14 07:17:08;;;;;;;5.53;4.72;;;11.00;99.90;;;;;;5071505;28;20037;-92
2024/02/14 07:19:38;;;;;;;7.40;5.40;;;11.00;99.90;;;;;;5057138;28;20369;-88
2024/02/14 07:22:04;;;;;;;8.02;6.10;;;11.00;99.90;;;;;;5057516;28;20118;-90
2024/02/14 07:24:30;;;;;;;6.30;5.35;;;11.00;99.90;;;;;;5077389;28;20169;-89
2024/02/14 07:26:56;;;;;;;6.53;5.68;;;11.00;99.90;;;;;;5059969;28;20433;-91
2024/02/14 07:29:22;;;;;;;11.07;6.72;;;11.00;99.90;;;;;;5095565;28;20081;-92
2024/02/14 07:31:48;;;;;;;7.47;5.60;;;11.00;99.90;;;;;;5076389;28;20028;-90
2024/02/14 07:34:16;;;;;;;8.02;5.97;;;11.00;99.90;;;;;;5077647;28;20031;-90
2024/02/14 07:36:46;;;;;;;7.97;5.80;;;11.00;99.90;;;;;;5060080;28;20119;-91
2024/02/14 07:39:14;;;;;;;6.75;5.85;;;11.00;99.90;;;;;;5057480;28;20020;-92
2024/02/14 07:41:42;;;;;;;7.57;6.57;;;11.00;99.90;;;;;;5057511;28;20020;-92
2024/02/14 07:44:10;;;;;;;7.15;5.95;;;11.00;99.90;;;;;;5056927;28;20036;-91
2024/02/14 07:46:39;;;;;;;10.40;6.72;;;11.00;99.90;;;;;;5056715;28;20048;-90
2024/02/14 07:49:06;;;;;;;9.55;7.28;;;11.00;99.90;;;;;;5066386;28;20016;-91
2024/02/14 07:51:36;;;;;;;8.45;6.45;;;11.10;99.90;;;;;;5076631;28;20110;-90
2024/02/14 07:54:03;;;;;;;7.22;6.45;;;11.10;99.90;;;;;;5069365;28;20381;-91
2024/02/14 07:56:29;;;;;;;9.70;6.78;;;11.10;99.90;;;;;;5058017;28;20025;-91
2024/02/14 07:58:57;;;;;;;7.40;6.53;;;11.20;99.90;;;;;;5041352;28;20495;-90
2024/02/14 08:01:25;;;;;;;9.68;6.78;;;11.20;99.90;;;;;;5047288;28;20024;-90
2024/02/14 08:03:51;;;;;;;7.40;6.65;;;11.20;99.90;;;;;;5076407;28;20464;-91
2024/02/14 08:06:17;;;;;;;8.90;7.10;;;11.20;99.90;;;;;;5070563;28;20066;-90
2024/02/14 08:08:48;;;;;;;10.18;6.78;;;11.20;99.90;;;;;;5057615;28;20037;-90
2024/02/14 08:11:14;;;;;;;10.15;7.43;;;11.20;99.90;;;;;;5061004;28;20016;-91
2024/02/14 08:13:40;;;;;;;7.47;6.60;;;11.20;99.90;;;;;;5092447;28;20051;-86
2024/02/14 08:16:06;;;;;;;8.95;6.88;;;11.20;99.90;;;;;;5098859;28;20021;-88
2024/02/14 08:18:32;;;;;;;8.43;6.53;;;11.20;99.90;;;;;;5067815;28;20044;-91
2024/02/14 08:21:01;;;;;;;8.48;6.55;;;11.20;99.90;;;;;;5106026;28;20031;-91
2024/02/14 08:23:27;;;;;;;9.98;6.72;;;11.20;99.90;;;;;;5099905;28;20020;-90
2024/02/14 08:25:53;;;;;;;6.35;5.50;;;11.20;99.90;;;;;;5060991;28;20039;-90
2024/02/14 08:28:20;;;;;;;6.80;6.10;;;11.20;99.90;;;;;;5061642;28;20032;-92
2024/02/14 08:30:46;;;;;;;6.55;5.32;;;11.20;99.90;;;;;;5064168;28;20028;-90
2024/02/14 08:33:14;;;;;;;7.35;6.28;;;11.20;99.90;;;;;;5065981;28;20028;-91
2024/02/14 08:35:40;;;;;;;9.80;6.15;;;11.20;99.90;;;;;;5057016;28;20020;-91
2024/02/14 08:38:06;;;;;;;9.40;6.72;;;11.20;99.90;;;;;;5052908;28;20158;-90
2024/02/14 08:40:32;;;;;;;10.35;6.45;;;11.20;99.90;;;;;;5072771;28;20028;-91
2024/02/14 08:43:00;;;;;;;8.85;5.70;;;11.20;99.90;;;;;;5058641;28;20035;-92
2024/02/14 08:45:29;;;;;;;7.78;6.05;;;11.20;99.90;;;;;;5056480;28;20448;-91
2024/02/14 08:47:55;;;;;;;6.60;5.25;;;11.30;99.90;;;;;;5056127;28;20033;-91
2024/02/14 08:50:21;;;;;;;11.00;6.43;;;11.30;99.90;;;;;;5088444;28;20028;-92
2024/02/14 08:52:47;;;;;;;8.75;5.97;;;11.30;99.90;;;;;;5067428;28;20039;-91
2024/02/14 08:55:17;;;;;;;7.15;6.38;;;11.30;99.90;;;;;;5044492;28;20060;-91
2024/02/14 08:57:47;;;;;;;6.82;5.45;;;11.30;99.90;;;;;;5055941;28;20060;-92
2024/02/14 09:00:19;;;;;;;5.82;5.22;;;11.30;99.90;;;;;;5072481;28;20036;-91
2024/02/14 09:02:48;;;;;;;7.07;5.55;;;11.30;99.90;;;;;;5063905;28;20503;-88
2024/02/14 09:05:17;;;;;;;7.40;5.25;;;11.30;99.90;;;;;;5080483;28;20464;-90
2024/02/14 09:07:44;;;;;;;6.63;5.90;;;11.30;99.90;;;;;;5096358;28;20576;-89
2024/02/14 09:10:17;;;;;;;6.70;5.45;;;11.40;99.90;;;;;;5063010;28;20070;-90
2024/02/14 09:12:43;;;;;;;8.10;6.22;;;11.40;99.90;;;;;;5096067;28;20151;-89
2024/02/14 09:15:11;;;;;;;7.00;5.63;;;11.40;99.90;;;;;;5077028;28;20118;-89
2024/02/14 09:17:41;;;;;;;8.32;5.78;;;11.40;99.90;;;;;;5067902;28;20128;-91
2024/02/14 09:20:09;;;;;;;7.68;5.40;;;11.40;99.90;;;;;;5097442;28;20020;-92
2024/02/14 09:22:40;;;;;;;6.45;5.15;;;11.40;99.90;;;;;;5072007;28;20051;-91
2024/02/14 09:25:12;;;;;;;7.63;5.82;;;11.40;99.90;;;;;;5074196;28;20016;-93
2024/02/14 09:27:48;;;;;;;8.07;5.95;;;11.50;99.90;;;;;;5049268;28;20391;-92
2024/02/14 09:30:14;;;;;;;5.90;5.28;;;11.50;99.90;;;;;;5055972;28;20024;-92
2024/02/14 09:32:43;;;;;;;6.57;5.45;;;11.50;99.90;;;;;;5079942;28;20020;-92
2024/02/14 09:35:08;;;;;;;7.20;6.32;;;11.60;99.90;;;;;;5062165;28;20082;-94
2024/02/14 09:37:34;;;;;;;7.65;5.82;;;11.50;99.90;;;;;;5062391;28;20052;-90
2024/02/14 09:40:00;;;;;;;6.22;4.88;;;11.50;99.90;;;;;;5072333;28;20031;-91
2024/02/14 09:42:54;;;;;;;8.25;5.18;;;11.60;99.90;;;;;;5080302;28;20024;-91
2024/02/14 09:45:21;;;;;;;6.15;5.40;;;11.60;99.90;;;;;;5100092;28;20034;-92
2024/02/14 09:47:48;;;;;;;8.88;5.88;;;11.60;99.90;;;;;;5100305;28;20008;-90
2024/02/14 09:50:14;;;;;;;8.68;6.00;;;11.60;99.90;;;;;;5102567;28;20087;-93
2024/02/14 09:52:42;;;;;;;9.18;5.85;;;11.60;99.90;;;;;;5101764;28;20024;-92
2024/02/14 09:55:09;;;;;;;9.18;6.82;;;11.60;99.90;;;;;;5089089;28;20036;-91
2024/02/14 09:57:37;;;;;;;8.85;6.50;;;11.60;99.90;;;;;;5079478;28;20035;-90
2024/02/14 10:00:03;;;;;;;10.60;6.43;;;11.60;99.90;;;;;;5079294;28;20031;-91
2024/02/14 10:02:32;;;;;;;7.63;6.93;;;11.60;99.90;;;;;;5078127;28;20013;-93
2024/02/14 10:05:01;;;;;;;10.18;6.25;;;11.60;99.90;;;;;;5058581;28;20127;-94
2024/02/14 10:07:27;;;;;;;9.50;6.75;;;11.60;99.90;;;;;;5063488;28;20114;-92
2024/02/14 10:09:57;;;;;;;8.45;6.65;;;11.60;99.90;;;;;;5078816;28;20035;-92
2024/02/14 10:12:25;;;;;;;8.93;6.72;;;11.70;99.90;;;;;;5044249;28;20064;-91
2024/02/14 10:14:52;;;;;;;8.00;5.82;;;11.70;99.90;;;;;;5042732;28;20400;-91
2024/02/14 10:17:20;;;;;;;8.00;6.80;;;11.70;99.90;;;;;;5075010;28;20024;-92
2024/02/14 10:20:00;;;;;;;8.73;6.47;;;11.70;99.90;;;;;;5076961;28;20033;-91
2024/02/14 10:22:34;;;;;;;8.82;6.22;;;11.80;99.90;;;;;;5081887;28;20025;-91
2024/02/14 10:25:12;;;;;;;9.30;7.13;;;11.70;99.90;;;;;;5069496;28;20024;-91
2024/02/14 10:27:39;;;;;;;9.57;6.53;;;11.70;99.90;;;;;;5065099;28;20027;-92
2024/02/14 10:30:09;;;;;;;8.63;6.25;;;11.80;99.90;;;;;;5096015;28;20023;-92
2024/02/14 10:32:37;;;;;;;12.30;6.47;;;11.80;99.90;;;;;;5096311;28;20144;-90
2024/02/14 10:35:08;;;;;;;9.98;6.68;;;11.80;99.90;;;;;;5092877;28;20055;-91
2024/02/14 10:37:35;;;;;;;8.32;6.38;;;11.90;99.90;;;;;;5066926;28;20028;-92
2024/02/14 10:43:47;;;;;;;9.32;6.13;;;11.90;99.90;;;;;;5064905;28;20028;-93
2024/02/14 10:46:25;;;;;;;8.98;5.95;;;12.00;99.90;;;;;;5057721;28;20032;-92
2024/02/14 10:48:58;;;;;;;11.05;6.35;;;12.10;99.90;;;;;;5038746;28;20037;-90
2024/02/14 10:51:41;;;;;;;;;;;;;;;;;;;;;
2024/02/14 10:54:30;;;;;;;9.77;6.20;;;12.10;99.90;;;;;;5075251;28;20028;-91
2024/02/14 10:56:58;;;;;;;7.30;5.40;;;12.20;99.90;;;;;;5065167;28;20040;-87
2024/02/14 10:59:25;;;;;;;6.93;5.47;;;12.20;99.90;;;;;;5095108;28;20067;-90
2024/02/14 11:01:51;;;;;;;8.57;5.65;;;12.20;99.90;;;;;;5073019;28;20066;-90
2024/02/14 11:04:18;;;;;;;9.35;5.65;;;12.30;99.90;;;;;;5063487;28;20077;-90
2024/02/14 11:06:48;;;;;;;7.30;5.57;;;12.30;99.90;;;;;;5057366;28;20013;-92
2024/02/14 11:09:15;;;;;;;7.40;5.25;;;12.30;99.90;;;;;;5078361;28;20077;-92
2024/02/14 11:11:43;;;;;;;8.10;5.32;;;12.30;99.90;;;;;;5092526;28;20475;-90
2024/02/14 11:14:15;;;;;;;6.60;5.20;;;12.30;99.90;;;;;;5057404;28;20055;-88
2024/02/14 11:16:42;;;;;;;6.20;5.10;;;12.30;99.90;;;;;;5057854;28;20020;-91
2024/02/14 11:19:12;;;;;;;8.20;5.97;;;12.30;99.90;;;;;;5058273;28;20119;-90
2024/02/14 11:21:45;;;;;;;8.43;5.75;;;12.40;99.90;;;;;;5074491;28;20012;-92
2024/02/14 11:24:16;;;;;;;6.60;5.78;;;12.40;99.90;;;;;;5067715;28;20020;-92
2024/02/14 11:26:55;;;;;;;8.35;5.20;;;12.40;99.90;;;;;;5091050;28;20016;-92
2024/02/14 11:29:28;;;;;;;8.75;5.75;;;12.40;99.90;;;;;;5097974;28;20016;-91
2024/02/14 11:32:06;;;;;;;9.40;5.10;;;12.50;99.90;;;;;;5065912;28;20032;-91
2024/02/14 11:34:33;;;;;;;10.60;5.63;;;12.40;99.90;;;;;;5068655;28;20020;-90
2024/02/14 11:37:02;;;;;;;6.85;5.88;;;12.50;99.90;;;;;;5062389;28;20043;-88
2024/02/14 11:39:33;;;;;;;5.68;4.93;;;12.50;99.90;;;;;;5082975;28;20468;-92
2024/02/14 11:42:07;;;;;;;9.15;5.20;;;12.50;99.90;;;;;;5069024;28;20016;-87
2024/02/14 11:44:37;;;;;;;6.53;5.00;;;12.50;99.90;;;;;;5061881;28;20078;-91
2024/02/14 11:47:04;;;;;;;7.25;4.85;;;12.50;99.90;;;;;;5061331;28;20016;-93
2024/02/14 11:49:30;;;;;;;7.78;5.45;;;12.50;99.90;;;;;;5089539;28;20021;-93
2024/02/14 11:51:56;;;;;;;7.68;5.15;;;12.50;99.90;;;;;;5076611;28;20024;-91
2024/02/14 11:54:23;;;;;;;6.60;5.40;;;12.50;99.90;;;;;;5075693;28;20023;-92
2024/02/14 11:56:49;;;;;;;6.90;4.80;;;12.50;99.90;;;;;;5064343;28;20037;-93
2024/02/14 11:59:19;;;;;;;7.25;5.28;;;12.60;99.90;;;;;;5076441;28;20028;-93
2024/02/14 12:01:46;;;;;;;5.43;4.75;;;12.60;99.90;;;;;;5077152;28;20583;-92
2024/02/14 12:04:12;;;;;;;5.72;4.65;;;12.60;99.90;;;;;;5067124;28;20020;-93
2024/02/14 12:06:43;;;;;;;5.57;4.18;;;12.60;99.90;;;;;;5056866;28;20102;-93
2024/02/14 12:09:09;;;;;;;5.35;4.10;;;12.50;99.90;;;;;;5077513;28;20024;-94
2024/02/14 12:11:45;;;;;;;4.75;4.03;;;12.50;99.90;;;;;;5063063;28;20036;-93
2024/02/14 12:14:12;;;;;;;5.38;4.40;;;12.50;99.90;;;;;;5072654;28;20069;-94
2024/02/14 12:16:40;;;;;;;5.95;4.50;;;12.50;99.90;;;;;;5065813;28;20016;-93
2024/02/14 12:19:15;;;;;;;6.45;4.53;;;12.60;99.90;;;;;;5075130;28;20058;-93
2024/02/14 12:21:44;;;;;;;4.93;3.88;;;12.50;99.90;;;;;;5062597;28;20036;-93
2024/02/14 12:24:12;;;;;;;5.72;3.63;;;12.50;99.90;;;;;;5060138;28;20026;-90
2024/02/14 12:26:41;;;;;;;4.50;3.65;;;12.50;99.90;;;;;;5090571;28;20085;-90
2024/02/14 12:29:10;;;;;;;4.95;3.65;;;12.50;99.90;;;;;;5056710;28;20052;-93
2024/02/14 12:31:36;;;;;;;5.72;3.65;;;12.50;99.90;;;;;;5091174;28;20031;-90
2024/02/14 12:34:04;;;;;;;5.55;3.65;;;12.60;99.90;;;;;;5077878;28;20052;-91
2024/02/14 12:36:32;;;;;;;4.80;3.33;;;12.60;99.90;;;;;;5098814;28;20013;-92
2024/02/14 12:39:02;;;;;;;4.82;3.20;;;12.60;99.90;;;;;;5098446;28;20027;-92
2024/02/14 12:41:35;;;;;;;3.25;2.88;;;12.70;99.90;;;;;;5074219;28;20036;-91
2024/02/14 12:44:07;;;;;;;3.58;2.75;;;12.70;99.90;;;;;;5081215;28;20073;-92
2024/02/14 12:46:33;;;;;;;3.83;2.80;;;12.70;99.90;;;;;;5064685;28;20024;-92
2024/02/14 12:48:59;;;;;;;4.32;3.17;;;12.70;99.90;;;;;;5080602;28;20028;-92
2024/02/14 12:51:28;;;;;;;3.53;2.70;;;12.70;99.90;;;;;;5083077;28;20081;-91
2024/02/14 12:53:54;;;;;;;3.10;2.75;;;12.80;99.90;;;;;;5103427;28;20039;-93
2024/02/14 12:56:22;;;;;;;3.80;2.72;;;12.80;99.90;;;;;;5084917;28;20009;-92
2024/02/14 12:58:48;;;;;;;3.90;2.83;;;12.80;99.90;;;;;;5086866;28;20036;-92
2024/02/14 13:01:14;;;;;;;3.45;2.63;;;12.70;99.90;;;;;;5103254;28;20058;-91